sensor_id;sensor_type;location;lat;lon;timestamp;temperature;humidity
40696;DHT22;40425;51.102;17.208;2022-11-15T00:01:59;5.00;99.90
40696;DHT22;40425;51.102;17.208;2022-11-15T00:07:00;4.90;99.90
40696;DHT22;40425;51.102;17.208;2022-11-15T00:12:00;4.80;99.90
40696;DHT22;40425;51.102;17.208;2022-11-15T00:17:01;4.60;99.90
40696;DHT22;40425;51.102;17.208;2022-11-15T00:22:02;4.70;99.90
40696;DHT22;40425;51.102;17.208;2022-11-15T00:27:03;4.70;99.90
40696;DHT22;40425;51.102;17.208;2022-11-15T00:32:04;4.70;99.90
40696;DHT22;40425;51.102;17.208;2022-11-15T00:37:06;4.80;99.90
40696;DHT22;40425;51.102;17.208;2022-11-15T00:42:07;4.80;99.90
40696;DHT22;40425;51.102;17.208;2022-11-15T00:47:08;4.70;99.90
40696;DHT22;40425;51.102;17.208;2022-11-15T00:52:09;4.70;99.90
40696;DHT22;40425;51.102;17.208;2022-11-15T00:57:10;4.70;99.90
40696;DHT22;40425;51.102;17.208;2022-11-15T01:02:10;4.80;99.90
40696;DHT22;40425;51.102;17.208;2022-11-15T01:07:11;4.70;99.90
40696;DHT22;40425;51.102;17.208;2022-11-15T01:12:12;4.60;99.90
40696;DHT22;40425;51.102;17.208;2022-11-15T01:17:13;4.50;99.90
40696;DHT22;40425;51.102;17.208;2022-11-15T01:22:14;4.60;99.90
40696;DHT22;40425;51.102;17.208;2022-11-15T01:27:15;4.60;99.90
40696;DHT22;40425;51.102;17.208;2022-11-15T01:32:16;4.60;99.90
40696;DHT22;40425;51.102;17.208;2022-11-15T01:37:17;4.60;99.90
40696;DHT22;40425;51.102;17.208;2022-11-15T01:42:18;3.60;99.90
40696;DHT22;40425;51.102;17.208;2022-11-15T01:47:23;3.60;99.90
40696;DHT22;40425;51.102;17.208;2022-11-15T01:52:28;3.80;99.90
40696;DHT22;40425;51.102;17.208;2022-11-15T01:57:29;3.90;99.90
40696;DHT22;40425;51.102;17.208;2022-11-15T02:02:31;3.90;99.90
40696;DHT22;40425;51.102;17.208;2022-11-15T02:07:35;3.90;99.90
40696;DHT22;40425;51.102;17.208;2022-11-15T02:12:37;3.90;99.90
40696;DHT22;40425;51.102;17.208;2022-11-15T02:23:48;3.30;99.90
40696;DHT22;40425;51.102;17.208;2022-11-15T02:29:05;3.30;99.90
40696;DHT22;40425;51.102;17.208;2022-11-15T02:34:29;3.40;99.90
40696;DHT22;40425;51.102;17.208;2022-11-15T02:44:46;3.60;99.90
40696;DHT22;40425;51.102;17.208;2022-11-15T02:49:52;3.60;99.90
40696;DHT22;40425;51.102;17.208;2022-11-15T02:54:58;3.60;99.90
40696;DHT22;40425;51.102;17.208;2022-11-15T03:00:04;3.50;99.90
40696;DHT22;40425;51.102;17.208;2022-11-15T03:10:46;3.30;99.90
40696;DHT22;40425;51.102;17.208;2022-11-15T03:16:09;3.20;99.90
40696;DHT22;40425;51.102;17.208;2022-11-15T03:21:11;3.20;99.90
40696;DHT22;40425;51.102;17.208;2022-11-15T03:26:14;3.50;99.90
40696;DHT22;40425;51.102;17.208;2022-11-15T03:31:18;3.40;99.90
40696;DHT22;40425;51.102;17.208;2022-11-15T03:36:38;3.40;99.90
40696;DHT22;40425;51.102;17.208;2022-11-15T03:47:21;3.20;99.90
40696;DHT22;40425;51.102;17.208;2022-11-15T03:52:24;3.20;99.90
40696;DHT22;40425;51.102;17.208;2022-11-15T03:57:25;3.10;99.90
40696;DHT22;40425;51.102;17.208;2022-11-15T04:02:26;3.10;99.90
40696;DHT22;40425;51.102;17.208;2022-11-15T04:07:26;3.00;99.90
40696;DHT22;40425;51.102;17.208;2022-11-15T04:12:42;3.00;99.90
40696;DHT22;40425;51.102;17.208;2022-11-15T04:17:53;3.10;99.90
40696;DHT22;40425;51.102;17.208;2022-11-15T04:22:59;3.00;99.90
40696;DHT22;40425;51.102;17.208;2022-11-15T04:28:18;3.00;99.90
40696;DHT22;40425;51.102;17.208;2022-11-15T04:33:19;3.10;99.90
40696;DHT22;40425;51.102;17.208;2022-11-15T04:38:20;3.10;99.90
40696;DHT22;40425;51.102;17.208;2022-11-15T04:43:21;3.00;99.90
40696;DHT22;40425;51.102;17.208;2022-11-15T04:48:22;2.90;99.90
40696;DHT22;40425;51.102;17.208;2022-11-15T04:53:22;3.00;99.90
40696;DHT22;40425;51.102;17.208;2022-11-15T04:58:23;2.90;99.90
40696;DHT22;40425;51.102;17.208;2022-11-15T05:03:24;3.00;99.90
40696;DHT22;40425;51.102;17.208;2022-11-15T05:08:43;2.80;99.90
40696;DHT22;40425;51.102;17.208;2022-11-15T05:13:44;2.90;99.90
40696;DHT22;40425;51.102;17.208;2022-11-15T05:18:45;2.90;99.90
40696;DHT22;40425;51.102;17.208;2022-11-15T05:23:46;2.90;99.90
40696;DHT22;40425;51.102;17.208;2022-11-15T05:28:54;2.80;99.90
40696;DHT22;40425;51.102;17.208;2022-11-15T05:33:56;2.80;99.90
40696;DHT22;40425;51.102;17.208;2022-11-15T05:38:58;2.80;99.90
40696;DHT22;40425;51.102;17.208;2022-11-15T05:44:00;2.70;99.90
40696;DHT22;40425;51.102;17.208;2022-11-15T05:49:01;2.80;99.90
40696;DHT22;40425;51.102;17.208;2022-11-15T05:54:03;2.80;99.90
40696;DHT22;40425;51.102;17.208;2022-11-15T05:59:04;2.90;99.90
40696;DHT22;40425;51.102;17.208;2022-11-15T06:04:06;2.80;99.90
40696;DHT22;40425;51.102;17.208;2022-11-15T06:09:06;2.80;99.90
40696;DHT22;40425;51.102;17.208;2022-11-15T06:14:07;2.80;99.90
40696;DHT22;40425;51.102;17.208;2022-11-15T06:19:08;2.80;99.90
40696;DHT22;40425;51.102;17.208;2022-11-15T06:24:09;2.70;99.90
40696;DHT22;40425;51.102;17.208;2022-11-15T06:29:10;2.60;99.90
40696;DHT22;40425;51.102;17.208;2022-11-15T06:34:11;2.40;99.90
40696;DHT22;40425;51.102;17.208;2022-11-15T06:39:12;2.40;99.90
40696;DHT22;40425;51.102;17.208;2022-11-15T06:44:13;2.00;99.90
40696;DHT22;40425;51.102;17.208;2022-11-15T06:49:13;1.90;99.90
40696;DHT22;40425;51.102;17.208;2022-11-15T06:54:14;2.10;99.90
40696;DHT22;40425;51.102;17.208;2022-11-15T06:59:15;2.30;99.90
40696;DHT22;40425;51.102;17.208;2022-11-15T07:04:16;2.70;99.90
40696;DHT22;40425;51.102;17.208;2022-11-15T07:09:17;2.80;99.90
40696;DHT22;40425;51.102;17.208;2022-11-15T07:14:18;2.80;99.90
40696;DHT22;40425;51.102;17.208;2022-11-15T07:19:19;2.50;99.90
40696;DHT22;40425;51.102;17.208;2022-11-15T07:24:19;2.50;99.90
40696;DHT22;40425;51.102;17.208;2022-11-15T07:29:20;2.70;99.90
40696;DHT22;40425;51.102;17.208;2022-11-15T07:34:21;2.80;99.90
40696;DHT22;40425;51.102;17.208;2022-11-15T07:39:22;3.10;99.90
40696;DHT22;40425;51.102;17.208;2022-11-15T07:44:23;3.50;99.90
40696;DHT22;40425;51.102;17.208;2022-11-15T07:49:24;3.80;99.90
40696;DHT22;40425;51.102;17.208;2022-11-15T07:54:25;4.00;99.90
40696;DHT22;40425;51.102;17.208;2022-11-15T07:59:26;4.20;99.90
40696;DHT22;40425;51.102;17.208;2022-11-15T08:04:26;4.30;99.90
40696;DHT22;40425;51.102;17.208;2022-11-15T08:09:27;4.40;99.90
40696;DHT22;40425;51.102;17.208;2022-11-15T08:14:28;4.70;99.90
40696;DHT22;40425;51.102;17.208;2022-11-15T08:19:29;4.80;99.90
40696;DHT22;40425;51.102;17.208;2022-11-15T08:24:30;4.90;99.90
40696;DHT22;40425;51.102;17.208;2022-11-15T08:29:31;5.10;99.90
40696;DHT22;40425;51.102;17.208;2022-11-15T08:34:31;5.30;99.90
40696;DHT22;40425;51.102;17.208;2022-11-15T08:39:32;5.50;99.90
40696;DHT22;40425;51.102;17.208;2022-11-15T08:44:33;5.70;99.90
40696;DHT22;40425;51.102;17.208;2022-11-15T08:49:34;5.90;99.90
40696;DHT22;40425;51.102;17.208;2022-11-15T08:54:35;6.10;99.90
40696;DHT22;40425;51.102;17.208;2022-11-15T08:59:36;6.30;99.90
40696;DHT22;40425;51.102;17.208;2022-11-15T09:04:40;6.40;99.90
40696;DHT22;40425;51.102;17.208;2022-11-15T09:09:41;6.60;99.90
40696;DHT22;40425;51.102;17.208;2022-11-15T09:14:42;6.80;99.90
40696;DHT22;40425;51.102;17.208;2022-11-15T09:19:43;7.00;99.90
40696;DHT22;40425;51.102;17.208;2022-11-15T09:24:44;7.10;99.90
40696;DHT22;40425;51.102;17.208;2022-11-15T09:29:45;7.30;99.90
40696;DHT22;40425;51.102;17.208;2022-11-15T09:34:46;7.40;99.90
40696;DHT22;40425;51.102;17.208;2022-11-15T09:39:47;7.50;99.90
40696;DHT22;40425;51.102;17.208;2022-11-15T09:45:04;7.70;99.90
40696;DHT22;40425;51.102;17.208;2022-11-15T09:50:09;7.90;99.90
40696;DHT22;40425;51.102;17.208;2022-11-15T09:55:12;8.10;99.90
40696;DHT22;40425;51.102;17.208;2022-11-15T10:00:34;8.20;99.90
40696;DHT22;40425;51.102;17.208;2022-11-15T10:05:43;8.40;99.90
40696;DHT22;40425;51.102;17.208;2022-11-15T10:10:48;8.60;99.90
40696;DHT22;40425;51.102;17.208;2022-11-15T10:15:50;8.80;99.90
40696;DHT22;40425;51.102;17.208;2022-11-15T10:20:58;8.90;99.90
40696;DHT22;40425;51.102;17.208;2022-11-15T10:26:00;9.00;99.90
40696;DHT22;40425;51.102;17.208;2022-11-15T10:31:02;9.20;99.90
40696;DHT22;40425;51.102;17.208;2022-11-15T10:41:11;9.50;99.90
40696;DHT22;40425;51.102;17.208;2022-11-15T10:46:20;9.70;99.90
40696;DHT22;40425;51.102;17.208;2022-11-15T10:51:27;9.90;99.90
40696;DHT22;40425;51.102;17.208;2022-11-15T10:56:28;10.10;99.90
40696;DHT22;40425;51.102;17.208;2022-11-15T11:01:29;10.20;99.90
40696;DHT22;40425;51.102;17.208;2022-11-15T11:06:49;10.40;99.90
40696;DHT22;40425;51.102;17.208;2022-11-15T11:11:51;10.60;99.90
40696;DHT22;40425;51.102;17.208;2022-11-15T11:22:05;10.80;99.90
40696;DHT22;40425;51.102;17.208;2022-11-15T11:32:57;11.00;99.90
40696;DHT22;40425;51.102;17.208;2022-11-15T11:49:17;11.30;99.90
40696;DHT22;40425;51.102;17.208;2022-11-15T11:59:53;11.50;99.90
40696;DHT22;40425;51.102;17.208;2022-11-15T12:10:37;11.70;99.90
40696;DHT22;40425;51.102;17.208;2022-11-15T12:21:19;11.80;99.90
40696;DHT22;40425;51.102;17.208;2022-11-15T12:26:25;11.90;99.90
40696;DHT22;40425;51.102;17.208;2022-11-15T12:31:38;11.90;99.90
40696;DHT22;40425;51.102;17.208;2022-11-15T12:36:44;12.00;99.90
40696;DHT22;40425;51.102;17.208;2022-11-15T13:17:52;12.30;99.90
40696;DHT22;40425;51.102;17.208;2022-11-15T13:23:09;12.40;99.90
40696;DHT22;40425;51.102;17.208;2022-11-15T13:33:23;12.40;99.90
40696;DHT22;40425;51.102;17.208;2022-11-15T13:43:36;12.40;99.90
40696;DHT22;40425;51.102;17.208;2022-11-15T13:48:38;12.30;99.90
40696;DHT22;40425;51.102;17.208;2022-11-15T13:53:44;12.30;99.90
40696;DHT22;40425;51.102;17.208;2022-11-15T13:58:47;12.30;99.90
40696;DHT22;40425;51.102;17.208;2022-11-15T14:03:59;12.50;99.90
40696;DHT22;40425;51.102;17.208;2022-11-15T14:19:33;12.20;99.90
40696;DHT22;40425;51.102;17.208;2022-11-15T14:24:34;12.10;99.90
40696;DHT22;40425;51.102;17.208;2022-11-15T14:29:35;11.90;99.90
40696;DHT22;40425;51.102;17.208;2022-11-15T14:34:35;11.70;99.90
40696;DHT22;40425;51.102;17.208;2022-11-15T14:39:36;11.60;99.90
40696;DHT22;40425;51.102;17.208;2022-11-15T14:44:37;11.50;99.90
40696;DHT22;40425;51.102;17.208;2022-11-15T14:49:38;11.40;99.90
40696;DHT22;40425;51.102;17.208;2022-11-15T14:54:39;11.20;99.90
40696;DHT22;40425;51.102;17.208;2022-11-15T14:59:40;11.10;99.90
40696;DHT22;40425;51.102;17.208;2022-11-15T15:04:41;11.00;99.90
40696;DHT22;40425;51.102;17.208;2022-11-15T15:09:42;10.90;99.90
40696;DHT22;40425;51.102;17.208;2022-11-15T15:14:44;10.70;99.90
40696;DHT22;40425;51.102;17.208;2022-11-15T15:19:45;10.60;99.90
40696;DHT22;40425;51.102;17.208;2022-11-15T15:24:46;10.50;99.90
40696;DHT22;40425;51.102;17.208;2022-11-15T15:29:47;10.40;99.90
40696;DHT22;40425;51.102;17.208;2022-11-15T15:34:48;10.30;99.90
40696;DHT22;40425;51.102;17.208;2022-11-15T15:39:54;10.20;99.90
40696;DHT22;40425;51.102;17.208;2022-11-15T15:44:55;10.00;99.90
40696;DHT22;40425;51.102;17.208;2022-11-15T15:49:56;9.70;99.90
40696;DHT22;40425;51.102;17.208;2022-11-15T15:54:57;9.40;99.90
40696;DHT22;40425;51.102;17.208;2022-11-15T15:59:58;9.30;99.90
40696;DHT22;40425;51.102;17.208;2022-11-15T16:04:59;9.10;99.90
40696;DHT22;40425;51.102;17.208;2022-11-15T16:10:02;9.00;99.90
40696;DHT22;40425;51.102;17.208;2022-11-15T16:15:14;8.80;99.90
40696;DHT22;40425;51.102;17.208;2022-11-15T16:20:38;8.70;99.90
40696;DHT22;40425;51.102;17.208;2022-11-15T16:25:51;8.50;99.90
40696;DHT22;40425;51.102;17.208;2022-11-15T16:31:05;8.40;99.90
40696;DHT22;40425;51.102;17.208;2022-11-15T16:36:22;8.50;99.90
40696;DHT22;40425;51.102;17.208;2022-11-15T16:41:23;8.50;99.90
40696;DHT22;40425;51.102;17.208;2022-11-15T16:46:26;8.50;99.90
40696;DHT22;40425;51.102;17.208;2022-11-15T16:51:28;8.60;99.90
40696;DHT22;40425;51.102;17.208;2022-11-15T16:56:30;8.60;99.90
40696;DHT22;40425;51.102;17.208;2022-11-15T17:01:33;8.60;99.90
40696;DHT22;40425;51.102;17.208;2022-11-15T17:06:35;8.30;99.90
40696;DHT22;40425;51.102;17.208;2022-11-15T17:11:36;8.10;99.90
40696;DHT22;40425;51.102;17.208;2022-11-15T17:16:39;7.80;99.90
40696;DHT22;40425;51.102;17.208;2022-11-15T17:22:01;7.50;99.90
40696;DHT22;40425;51.102;17.208;2022-11-15T17:27:02;7.30;99.90
40696;DHT22;40425;51.102;17.208;2022-11-15T17:32:02;7.20;99.90
40696;DHT22;40425;51.102;17.208;2022-11-15T17:37:03;6.70;99.90
40696;DHT22;40425;51.102;17.208;2022-11-15T17:42:04;6.70;99.90
40696;DHT22;40425;51.102;17.208;2022-11-15T17:47:05;6.40;99.90
40696;DHT22;40425;51.102;17.208;2022-11-15T17:52:08;6.30;99.90
40696;DHT22;40425;51.102;17.208;2022-11-15T17:57:09;6.10;99.90
40696;DHT22;40425;51.102;17.208;2022-11-15T18:02:12;6.30;99.90
40696;DHT22;40425;51.102;17.208;2022-11-15T18:07:13;6.30;99.90
40696;DHT22;40425;51.102;17.208;2022-11-15T18:12:14;6.20;99.90
40696;DHT22;40425;51.102;17.208;2022-11-15T18:17:14;6.40;99.90
40696;DHT22;40425;51.102;17.208;2022-11-15T18:22:18;6.30;99.90
40696;DHT22;40425;51.102;17.208;2022-11-15T18:27:20;6.40;99.90
40696;DHT22;40425;51.102;17.208;2022-11-15T18:32:21;6.30;99.90
40696;DHT22;40425;51.102;17.208;2022-11-15T18:37:22;6.10;99.90
40696;DHT22;40425;51.102;17.208;2022-11-15T18:42:23;6.00;99.90
40696;DHT22;40425;51.102;17.208;2022-11-15T18:47:24;6.20;99.90
40696;DHT22;40425;51.102;17.208;2022-11-15T18:52:25;6.20;99.90
40696;DHT22;40425;51.102;17.208;2022-11-15T18:57:26;6.20;99.90
40696;DHT22;40425;51.102;17.208;2022-11-15T19:02:28;6.20;99.90
40696;DHT22;40425;51.102;17.208;2022-11-15T19:07:29;6.20;99.90
40696;DHT22;40425;51.102;17.208;2022-11-15T19:12:32;6.40;99.90
40696;DHT22;40425;51.102;17.208;2022-11-15T19:17:36;6.60;99.90
40696;DHT22;40425;51.102;17.208;2022-11-15T19:22:41;6.80;99.90
40696;DHT22;40425;51.102;17.208;2022-11-15T19:27:53;7.00;99.90
40696;DHT22;40425;51.102;17.208;2022-11-15T19:32:55;7.10;99.90
40696;DHT22;40425;51.102;17.208;2022-11-15T19:37:56;7.20;99.90
40696;DHT22;40425;51.102;17.208;2022-11-15T19:42:59;7.20;99.90
40696;DHT22;40425;51.102;17.208;2022-11-15T19:48:03;7.20;99.90
40696;DHT22;40425;51.102;17.208;2022-11-15T19:53:04;7.30;99.90
40696;DHT22;40425;51.102;17.208;2022-11-15T19:58:05;7.00;99.90
40696;DHT22;40425;51.102;17.208;2022-11-15T20:03:10;6.80;99.90
40696;DHT22;40425;51.102;17.208;2022-11-15T20:08:13;6.80;99.90
40696;DHT22;40425;51.102;17.208;2022-11-15T20:13:15;6.60;99.90
40696;DHT22;40425;51.102;17.208;2022-11-15T20:18:18;6.70;99.90
40696;DHT22;40425;51.102;17.208;2022-11-15T20:23:22;6.90;99.90
40696;DHT22;40425;51.102;17.208;2022-11-15T20:28:28;7.00;99.90
40696;DHT22;40425;51.102;17.208;2022-11-15T20:33:29;7.10;99.90
40696;DHT22;40425;51.102;17.208;2022-11-15T20:38:40;7.10;99.90
40696;DHT22;40425;51.102;17.208;2022-11-15T20:43:44;7.00;99.90
40696;DHT22;40425;51.102;17.208;2022-11-15T20:48:46;7.00;99.90
40696;DHT22;40425;51.102;17.208;2022-11-15T20:53:50;7.10;99.90
40696;DHT22;40425;51.102;17.208;2022-11-15T20:58:51;7.20;99.90
40696;DHT22;40425;51.102;17.208;2022-11-15T21:03:53;7.00;99.90
40696;DHT22;40425;51.102;17.208;2022-11-15T21:08:56;6.70;99.90
40696;DHT22;40425;51.102;17.208;2022-11-15T21:14:17;6.70;99.90
40696;DHT22;40425;51.102;17.208;2022-11-15T21:19:20;6.60;99.90
40696;DHT22;40425;51.102;17.208;2022-11-15T21:24:22;6.80;99.90
40696;DHT22;40425;51.102;17.208;2022-11-15T21:29:25;6.80;99.90
40696;DHT22;40425;51.102;17.208;2022-11-15T21:34:28;6.90;99.90
40696;DHT22;40425;51.102;17.208;2022-11-15T21:39:30;7.10;99.90
40696;DHT22;40425;51.102;17.208;2022-11-15T21:44:37;7.20;99.90
40696;DHT22;40425;51.102;17.208;2022-11-15T21:49:40;7.30;99.90
40696;DHT22;40425;51.102;17.208;2022-11-15T21:54:44;7.40;99.90
40696;DHT22;40425;51.102;17.208;2022-11-15T21:59:49;7.30;99.90
40696;DHT22;40425;51.102;17.208;2022-11-15T22:05:09;7.40;99.90
40696;DHT22;40425;51.102;17.208;2022-11-15T22:10:10;7.40;99.90
40696;DHT22;40425;51.102;17.208;2022-11-15T22:15:11;7.20;99.90
40696;DHT22;40425;51.102;17.208;2022-11-15T22:20:13;7.20;99.90
40696;DHT22;40425;51.102;17.208;2022-11-15T22:25:14;7.30;99.90
40696;DHT22;40425;51.102;17.208;2022-11-15T22:30:17;7.40;99.90
40696;DHT22;40425;51.102;17.208;2022-11-15T22:35:18;7.40;99.90
40696;DHT22;40425;51.102;17.208;2022-11-15T22:40:19;7.20;99.90
40696;DHT22;40425;51.102;17.208;2022-11-15T22:45:21;6.90;99.90
40696;DHT22;40425;51.102;17.208;2022-11-15T22:50:22;6.90;99.90
40696;DHT22;40425;51.102;17.208;2022-11-15T22:55:23;7.00;99.90
40696;DHT22;40425;51.102;17.208;2022-11-15T23:00:24;7.00;99.90
40696;DHT22;40425;51.102;17.208;2022-11-15T23:05:25;6.90;99.90
40696;DHT22;40425;51.102;17.208;2022-11-15T23:10:26;6.80;99.90
40696;DHT22;40425;51.102;17.208;2022-11-15T23:15:48;6.60;99.90
40696;DHT22;40425;51.102;17.208;2022-11-15T23:21:09;6.40;99.90
40696;DHT22;40425;51.102;17.208;2022-11-15T23:26:10;6.50;99.90
40696;DHT22;40425;51.102;17.208;2022-11-15T23:31:11;6.60;99.90
40696;DHT22;40425;51.102;17.208;2022-11-15T23:36:31;6.50;99.90
40696;DHT22;40425;51.102;17.208;2022-11-15T23:46:33;6.90;99.90
40696;DHT22;40425;51.102;17.208;2022-11-15T23:51:34;7.00;99.90
40696;DHT22;40425;51.102;17.208;2022-11-15T23:56:35;7.20;99.90
